QTR774 SBGR-OTHH
Flight info
| Callsign | QTR774 |
|---|---|
| Flight time | N/A |
| Altitude | 29000 |
| Route | UREMI UZ42 IMDAB/N0491F310 UZ42 CXI UL340 ADA UZ48 TOSIV/M083F310 UZ50 GELAM/N0496F310 DCT 19S035W 1800S03230W 17S030W 1530S02730W 14S025W 1230S02230W/M083F330 11S020W 0930S01730W 08S015W 0622S01200W/ 05S010W 01S005W 03N000E DCT GANBI/N0496F330 UY252 TYE UL433 LAG UR778 IBA/N0486F350 UR778 TONBA/N0478F370 R778 DITAR M999 LXR L604 WEJ M872 BDB Y214 ASPUS/N0442F290 Y432 LADBO T142 LAEEB |
| Aircraft | B77L/H-SDE1E3FGHIJ5M1P2RWXYZ/LB1D1 |
Departure
| Time | N/A |
|---|---|
| Airport | São Paulo/Guarulhos–Governor André Franco Montoro International Airport (SBGR) |
Arrival
| Time | 2026-05-06 10:49 |
|---|---|
| Airport | Hamad International Airport (OTHH) |
| Time | Latitude | Longitude | Altitude | Speed | Heading |
|---|---|---|---|---|---|
| 2026-05-06 07:41 | 26.84913 | 25.53278 | 37141 ft | 539 kts | 106° |
| 2026-05-06 07:41 | 26.83887 | 25.57309 | 37140 ft | 538 kts | 106° |
| 2026-05-06 07:41 | 26.81828 | 25.65363 | 37141 ft | 537 kts | 106° |
| 2026-05-06 07:42 | 26.79770 | 25.73386 | 37143 ft | 536 kts | 106° |
| 2026-05-06 07:42 | 26.77712 | 25.81384 | 37142 ft | 534 kts | 106° |
| 2026-05-06 07:43 | 26.75657 | 25.89358 | 37141 ft | 533 kts | 106° |
| 2026-05-06 07:43 | 26.73600 | 25.97316 | 37140 ft | 532 kts | 106° |
| 2026-05-06 07:44 | 26.71569 | 26.05160 | 37146 ft | 531 kts | 106° |
| 2026-05-06 07:44 | 26.69507 | 26.13098 | 37144 ft | 531 kts | 106° |
| 2026-05-06 07:45 | 26.67443 | 26.21031 | 37126 ft | 531 kts | 107° |
| 2026-05-06 07:45 | 26.65372 | 26.28964 | 37142 ft | 532 kts | 107° |
| 2026-05-06 07:46 | 26.63297 | 26.36898 | 37149 ft | 532 kts | 107° |
| 2026-05-06 07:46 | 26.61213 | 26.44842 | 37140 ft | 533 kts | 107° |
| 2026-05-06 07:47 | 26.59123 | 26.52790 | 37143 ft | 533 kts | 107° |
| 2026-05-06 07:47 | 26.57028 | 26.60741 | 37149 ft | 534 kts | 107° |
| 2026-05-06 07:48 | 26.54925 | 26.68700 | 37130 ft | 534 kts | 107° |
| 2026-05-06 07:48 | 26.52817 | 26.76657 | 37144 ft | 534 kts | 107° |
| 2026-05-06 07:49 | 26.51062 | 26.83270 | 37145 ft | 534 kts | 107° |
| 2026-05-06 07:49 | 26.48945 | 26.91227 | 37131 ft | 535 kts | 107° |
| 2026-05-06 07:50 | 26.46824 | 26.99177 | 37130 ft | 534 kts | 107° |
| 2026-05-06 07:50 | 26.44725 | 27.07028 | 37146 ft | 534 kts | 107° |
| 2026-05-06 07:51 | 26.42596 | 27.14970 | 37143 ft | 534 kts | 107° |
| 2026-05-06 07:51 | 26.40465 | 27.22906 | 37134 ft | 534 kts | 107° |
| 2026-05-06 07:52 | 26.38329 | 27.30835 | 37141 ft | 534 kts | 107° |
| 2026-05-06 07:52 | 26.36189 | 27.38763 | 37137 ft | 534 kts | 107° |
| 2026-05-06 07:53 | 26.34044 | 27.46689 | 37140 ft | 534 kts | 107° |
| 2026-05-06 07:53 | 26.31894 | 27.54615 | 37147 ft | 534 kts | 108° |
| 2026-05-06 07:54 | 26.29739 | 27.62539 | 37141 ft | 534 kts | 108° |
| 2026-05-06 07:54 | 26.27580 | 27.70461 | 37130 ft | 534 kts | 108° |
| 2026-05-06 07:55 | 26.25415 | 27.78383 | 37142 ft | 535 kts | 108° |
| 2026-05-06 07:55 | 26.23246 | 27.86306 | 37130 ft | 535 kts | 108° |
| 2026-05-06 07:56 | 26.21074 | 27.94218 | 37132 ft | 534 kts | 108° |
| 2026-05-06 07:56 | 26.18923 | 28.02036 | 37140 ft | 535 kts | 108° |
| 2026-05-06 07:57 | 26.16741 | 28.09947 | 37132 ft | 535 kts | 108° |
| 2026-05-06 07:57 | 26.14555 | 28.17855 | 37135 ft | 535 kts | 108° |
| 2026-05-06 07:58 | 26.12365 | 28.25759 | 37131 ft | 534 kts | 108° |
| 2026-05-06 07:58 | 26.10171 | 28.33663 | 37139 ft | 534 kts | 108° |
| 2026-05-06 07:59 | 26.07967 | 28.41558 | 37135 ft | 535 kts | 108° |
| 2026-05-06 07:59 | 26.05750 | 28.49453 | 37129 ft | 535 kts | 108° |
| 2026-05-06 08:00 | 26.03531 | 28.57340 | 37138 ft | 535 kts | 108° |
| 2026-05-06 08:00 | 26.01309 | 28.65229 | 37137 ft | 535 kts | 108° |
| 2026-05-06 08:01 | 25.99082 | 28.73119 | 37140 ft | 535 kts | 108° |
| 2026-05-06 08:01 | 25.96851 | 28.81003 | 37134 ft | 535 kts | 109° |
| 2026-05-06 08:02 | 25.94616 | 28.88887 | 37125 ft | 535 kts | 109° |
| 2026-05-06 08:02 | 25.92376 | 28.96767 | 37128 ft | 535 kts | 109° |
| 2026-05-06 08:03 | 25.90162 | 29.04538 | 37127 ft | 535 kts | 109° |
| 2026-05-06 08:03 | 25.87915 | 29.12409 | 37127 ft | 535 kts | 109° |
| 2026-05-06 08:04 | 25.85662 | 29.20279 | 37134 ft | 535 kts | 109° |
| 2026-05-06 08:04 | 25.83405 | 29.28149 | 37120 ft | 535 kts | 109° |
| 2026-05-06 08:05 | 25.81146 | 29.36013 | 37126 ft | 535 kts | 109° |
| 2026-05-06 08:05 | 25.78882 | 29.43874 | 37135 ft | 535 kts | 109° |
| 2026-05-06 08:06 | 25.76605 | 29.51725 | 37132 ft | 535 kts | 109° |
| 2026-05-06 08:06 | 25.74311 | 29.59569 | 37127 ft | 534 kts | 109° |
| 2026-05-06 08:07 | 25.72016 | 29.67406 | 37131 ft | 534 kts | 109° |
| 2026-05-06 08:07 | 25.69720 | 29.75241 | 37132 ft | 534 kts | 109° |
| 2026-05-06 08:08 | 25.67420 | 29.83074 | 37132 ft | 534 kts | 109° |
| 2026-05-06 08:08 | 25.65117 | 29.90901 | 37134 ft | 534 kts | 109° |
| 2026-05-06 08:09 | 25.62808 | 29.98728 | 37129 ft | 534 kts | 109° |
| 2026-05-06 08:09 | 25.60526 | 30.06448 | 37124 ft | 534 kts | 109° |
| 2026-05-06 08:10 | 25.58211 | 30.14263 | 37123 ft | 534 kts | 110° |
| 2026-05-06 08:10 | 25.55890 | 30.22080 | 37126 ft | 534 kts | 110° |
| 2026-05-06 08:11 | 25.53566 | 30.29894 | 37081 ft | 534 kts | 110° |
| 2026-05-06 08:11 | 25.51240 | 30.37700 | 37105 ft | 534 kts | 110° |
| 2026-05-06 08:12 | 25.48910 | 30.45499 | 37095 ft | 534 kts | 110° |
| 2026-05-06 08:12 | 25.46585 | 30.53296 | 37080 ft | 534 kts | 107° |
| 2026-05-06 08:13 | 25.45538 | 30.61371 | 37091 ft | 536 kts | 91° |
| 2026-05-06 08:13 | 25.46273 | 30.69609 | 37091 ft | 535 kts | 78° |
| 2026-05-06 08:14 | 25.47593 | 30.77722 | 37085 ft | 536 kts | 79° |
| 2026-05-06 08:14 | 25.48817 | 30.85864 | 37081 ft | 537 kts | 79° |
| 2026-05-06 08:15 | 25.49992 | 30.94023 | 37082 ft | 537 kts | 79° |
| 2026-05-06 08:15 | 25.51143 | 31.02083 | 37077 ft | 537 kts | 80° |
| 2026-05-06 08:16 | 25.52311 | 31.10245 | 37079 ft | 537 kts | 80° |
| 2026-05-06 08:16 | 25.53478 | 31.18405 | 37079 ft | 537 kts | 80° |
| 2026-05-06 08:17 | 25.54642 | 31.26570 | 37074 ft | 537 kts | 80° |
| 2026-05-06 08:17 | 25.55800 | 31.34740 | 37076 ft | 537 kts | 80° |
| 2026-05-06 08:18 | 25.56954 | 31.42914 | 37076 ft | 537 kts | 80° |
| 2026-05-06 08:18 | 25.58105 | 31.51094 | 37070 ft | 537 kts | 80° |
| 2026-05-06 08:19 | 25.59250 | 31.59273 | 37072 ft | 537 kts | 81° |
| 2026-05-06 08:19 | 25.60391 | 31.67458 | 37064 ft | 537 kts | 81° |
| 2026-05-06 08:20 | 25.61527 | 31.75639 | 37061 ft | 537 kts | 81° |
| 2026-05-06 08:20 | 25.62659 | 31.83817 | 37061 ft | 537 kts | 81° |
| 2026-05-06 08:21 | 25.63776 | 31.92003 | 37057 ft | 537 kts | 81° |
| 2026-05-06 08:21 | 25.64861 | 32.00134 | 37063 ft | 538 kts | 81° |
| 2026-05-06 08:22 | 25.65943 | 32.08285 | 37076 ft | 538 kts | 82° |
| 2026-05-06 08:22 | 25.67031 | 32.16497 | 37051 ft | 539 kts | 82° |
| 2026-05-06 08:23 | 25.68110 | 32.24658 | 37048 ft | 539 kts | 82° |
| 2026-05-06 08:23 | 25.69190 | 32.32870 | 37046 ft | 538 kts | 82° |
| 2026-05-06 08:24 | 25.70267 | 32.41086 | 37036 ft | 538 kts | 82° |
| 2026-05-06 08:24 | 25.71336 | 32.49293 | 37050 ft | 538 kts | 82° |
| 2026-05-06 08:25 | 25.72403 | 32.57509 | 37039 ft | 539 kts | 82° |
| 2026-05-06 08:25 | 25.73466 | 32.65734 | 37035 ft | 539 kts | 82° |
| 2026-05-06 08:26 | 25.74523 | 32.73953 | 37052 ft | 539 kts | 82° |
| 2026-05-06 08:26 | 25.75572 | 32.82185 | 37032 ft | 539 kts | 83° |
| 2026-05-06 08:27 | 25.76603 | 32.90427 | 37015 ft | 539 kts | 83° |
| 2026-05-06 08:27 | 25.77630 | 32.98664 | 37033 ft | 539 kts | 83° |
| 2026-05-06 08:28 | 25.78640 | 33.06781 | 37033 ft | 539 kts | 83° |
| 2026-05-06 08:28 | 25.79654 | 33.15018 | 37026 ft | 539 kts | 83° |
| 2026-05-06 08:29 | 25.80641 | 33.23255 | 37021 ft | 538 kts | 84° |
| 2026-05-06 08:29 | 25.81620 | 33.31494 | 37031 ft | 539 kts | 84° |
| 2026-05-06 08:30 | 25.82598 | 33.39739 | 37020 ft | 539 kts | 84° |
| 2026-05-06 08:30 | 25.83575 | 33.47992 | 37026 ft | 540 kts | 84° |
| 2026-05-06 08:31 | 25.84390 | 33.54916 | 37022 ft | 540 kts | 84° |
| 2026-05-06 08:31 | 25.85354 | 33.63127 | 37011 ft | 540 kts | 84° |
| 2026-05-06 08:32 | 25.86318 | 33.71385 | 37003 ft | 539 kts | 84° |
| 2026-05-06 08:32 | 25.87276 | 33.79642 | 37017 ft | 539 kts | 84° |
| 2026-05-06 08:33 | 25.88234 | 33.87946 | 37013 ft | 539 kts | 84° |
| 2026-05-06 08:33 | 25.89176 | 33.96141 | 37009 ft | 538 kts | 84° |
| 2026-05-06 08:34 | 25.90575 | 34.08391 | 37029 ft | 539 kts | 85° |
| 2026-05-06 08:35 | 25.91511 | 34.16653 | 37028 ft | 540 kts | 85° |
| 2026-05-06 08:35 | 25.92435 | 34.24927 | 37016 ft | 539 kts | 85° |
| 2026-05-06 08:36 | 25.93359 | 34.33253 | 37011 ft | 540 kts | 85° |
| 2026-05-06 08:36 | 25.94268 | 34.41473 | 37021 ft | 540 kts | 85° |
| 2026-05-06 08:37 | 25.95180 | 34.49753 | 37007 ft | 540 kts | 85° |
| 2026-05-06 08:37 | 25.96091 | 34.58037 | 37017 ft | 540 kts | 85° |
| 2026-05-06 08:38 | 25.96997 | 34.66324 | 37024 ft | 540 kts | 85° |
| 2026-05-06 08:38 | 25.97900 | 34.74625 | 36995 ft | 541 kts | 86° |
| 2026-05-06 08:39 | 25.98797 | 34.82926 | 37013 ft | 541 kts | 86° |
| 2026-05-06 08:39 | 25.99691 | 34.91237 | 37015 ft | 542 kts | 86° |
| 2026-05-06 08:40 | 26.00581 | 34.99561 | 36995 ft | 543 kts | 86° |
| 2026-05-06 08:40 | 26.01457 | 35.07788 | 37008 ft | 543 kts | 86° |
| 2026-05-06 08:41 | 26.02350 | 35.16133 | 37007 ft | 544 kts | 86° |
| 2026-05-06 08:41 | 26.03247 | 35.24487 | 37006 ft | 544 kts | 86° |
| 2026-05-06 08:42 | 26.04139 | 35.32852 | 36998 ft | 545 kts | 86° |
| 2026-05-06 08:42 | 26.05024 | 35.41227 | 37013 ft | 546 kts | 86° |
| 2026-05-06 08:43 | 26.05889 | 35.49616 | 37004 ft | 546 kts | 86° |
| 2026-05-06 08:43 | 26.06746 | 35.58010 | 36984 ft | 546 kts | 87° |
| 2026-05-06 08:44 | 26.07601 | 35.66404 | 36993 ft | 546 kts | 87° |
| 2026-05-06 08:44 | 26.08457 | 35.74796 | 36989 ft | 546 kts | 86° |
| 2026-05-06 08:45 | 26.09503 | 35.83177 | 36985 ft | 547 kts | 84° |
| 2026-05-06 08:45 | 26.10638 | 35.91554 | 36983 ft | 548 kts | 85° |
| 2026-05-06 08:46 | 26.11740 | 35.99936 | 36975 ft | 548 kts | 85° |
| 2026-05-06 08:46 | 26.12798 | 36.08231 | 36997 ft | 548 kts | 85° |
| 2026-05-06 08:47 | 26.13861 | 36.16635 | 36972 ft | 549 kts | 85° |
| 2026-05-06 08:47 | 26.14923 | 36.25043 | 36955 ft | 548 kts | 85° |
| 2026-05-06 08:48 | 26.15980 | 36.33435 | 36964 ft | 547 kts | 85° |
| 2026-05-06 08:48 | 26.17018 | 36.41825 | 36965 ft | 545 kts | 88° |
| 2026-05-06 08:48 | 26.17085 | 36.46008 | 36957 ft | 537 kts | 101° |
| 2026-05-06 08:49 | 26.16498 | 36.50075 | 36977 ft | 529 kts | 110° |
| 2026-05-06 08:49 | 26.13810 | 36.57556 | 36972 ft | 516 kts | 127° |
| 2026-05-06 08:50 | 26.10244 | 36.64541 | 36968 ft | 521 kts | 127° |
| 2026-05-06 08:50 | 26.06677 | 36.71588 | 36965 ft | 524 kts | 127° |
| 2026-05-06 08:51 | 26.03160 | 36.78690 | 36955 ft | 524 kts | 127° |
| 2026-05-06 08:51 | 25.99665 | 36.85790 | 36959 ft | 523 kts | 127° |
| 2026-05-06 08:52 | 25.96175 | 36.92856 | 36958 ft | 521 kts | 127° |
| 2026-05-06 08:52 | 25.92689 | 36.99889 | 36951 ft | 519 kts | 127° |
| 2026-05-06 08:53 | 25.89259 | 37.06798 | 36960 ft | 517 kts | 127° |
| 2026-05-06 08:53 | 25.85786 | 37.13782 | 36967 ft | 516 kts | 127° |
| 2026-05-06 08:54 | 25.82316 | 37.20754 | 36973 ft | 516 kts | 127° |
| 2026-05-06 08:54 | 25.78839 | 37.27729 | 36960 ft | 516 kts | 127° |
| 2026-05-06 08:55 | 25.75368 | 37.34698 | 36985 ft | 516 kts | 127° |
| 2026-05-06 08:55 | 25.71892 | 37.41669 | 36962 ft | 517 kts | 127° |
| 2026-05-06 08:56 | 25.68407 | 37.48650 | 36947 ft | 518 kts | 127° |
| 2026-05-06 08:56 | 25.64906 | 37.55650 | 36975 ft | 520 kts | 128° |
| 2026-05-06 08:57 | 25.61388 | 37.62672 | 36962 ft | 523 kts | 127° |
| 2026-05-06 08:57 | 25.57855 | 37.69718 | 36969 ft | 524 kts | 127° |
| 2026-05-06 08:58 | 25.54315 | 37.76769 | 36957 ft | 523 kts | 128° |
| 2026-05-06 08:58 | 25.50780 | 37.83800 | 36950 ft | 522 kts | 128° |
| 2026-05-06 08:59 | 25.47246 | 37.90813 | 36961 ft | 521 kts | 128° |
| 2026-05-06 08:59 | 25.43716 | 37.97808 | 36947 ft | 521 kts | 128° |
| 2026-05-06 09:00 | 25.40230 | 38.04702 | 36945 ft | 520 kts | 128° |
| 2026-05-06 09:00 | 25.36695 | 38.11687 | 36957 ft | 521 kts | 128° |
| 2026-05-06 09:01 | 25.33139 | 38.18696 | 36936 ft | 524 kts | 128° |
| 2026-05-06 09:01 | 25.29576 | 38.25718 | 36950 ft | 524 kts | 128° |
| 2026-05-06 09:02 | 25.26010 | 38.32734 | 36953 ft | 523 kts | 128° |
| 2026-05-06 09:02 | 25.22445 | 38.39736 | 36958 ft | 523 kts | 128° |
| 2026-05-06 09:03 | 25.18885 | 38.46718 | 36960 ft | 521 kts | 128° |
| 2026-05-06 09:03 | 25.15326 | 38.53687 | 36966 ft | 521 kts | 128° |
| 2026-05-06 09:04 | 25.11765 | 38.60651 | 36956 ft | 521 kts | 128° |
| 2026-05-06 09:04 | 25.08208 | 38.67602 | 36959 ft | 520 kts | 128° |
| 2026-05-06 09:05 | 25.04660 | 38.74530 | 36952 ft | 518 kts | 129° |
| 2026-05-06 09:05 | 25.01149 | 38.81374 | 36995 ft | 515 kts | 129° |
| 2026-05-06 09:06 | 24.97604 | 38.88263 | 36980 ft | 519 kts | 129° |
| 2026-05-06 09:06 | 24.94031 | 38.95190 | 36972 ft | 521 kts | 129° |
| 2026-05-06 09:07 | 24.90450 | 39.02082 | 36979 ft | 523 kts | 129° |
| 2026-05-06 09:07 | 24.86847 | 39.09009 | 36973 ft | 526 kts | 129° |
| 2026-05-06 09:08 | 24.83210 | 39.16005 | 36972 ft | 527 kts | 129° |
| 2026-05-06 09:08 | 24.79567 | 39.22998 | 36986 ft | 527 kts | 129° |
| 2026-05-06 09:09 | 24.75919 | 39.29993 | 36990 ft | 527 kts | 129° |
| 2026-05-06 09:09 | 24.72274 | 39.36974 | 36976 ft | 526 kts | 129° |
| 2026-05-06 09:10 | 24.68634 | 39.43939 | 36994 ft | 524 kts | 129° |
| 2026-05-06 09:10 | 24.64999 | 39.50881 | 36987 ft | 523 kts | 129° |
| 2026-05-06 09:11 | 24.61373 | 39.57799 | 36979 ft | 522 kts | 129° |
| 2026-05-06 09:11 | 24.57748 | 39.64708 | 36982 ft | 523 kts | 128° |
| 2026-05-06 09:12 | 24.54931 | 39.72207 | 36988 ft | 541 kts | 113° |
| 2026-05-06 09:12 | 24.53557 | 39.80412 | 36992 ft | 551 kts | 102° |
| 2026-05-06 09:13 | 24.52960 | 39.87384 | 36985 ft | 552 kts | 101° |
| 2026-05-06 09:13 | 24.52256 | 39.95823 | 36999 ft | 551 kts | 101° |
| 2026-05-06 09:14 | 24.51495 | 40.04016 | 36976 ft | 550 kts | 102° |
| 2026-05-06 09:14 | 24.50674 | 40.12365 | 36997 ft | 550 kts | 102° |
| 2026-05-06 09:15 | 24.49849 | 40.20709 | 36993 ft | 550 kts | 102° |
| 2026-05-06 09:15 | 24.49026 | 40.29049 | 36985 ft | 549 kts | 102° |
| 2026-05-06 09:16 | 24.48203 | 40.37384 | 36991 ft | 549 kts | 102° |
| 2026-05-06 09:16 | 24.47373 | 40.45716 | 36996 ft | 549 kts | 102° |
| 2026-05-06 09:17 | 24.46540 | 40.54047 | 36991 ft | 549 kts | 102° |
| 2026-05-06 09:17 | 24.45703 | 40.62363 | 36993 ft | 548 kts | 102° |
| 2026-05-06 09:18 | 24.44868 | 40.70679 | 37001 ft | 548 kts | 102° |
| 2026-05-06 09:18 | 24.44031 | 40.78998 | 37004 ft | 549 kts | 102° |
| 2026-05-06 09:19 | 24.43183 | 40.87378 | 36994 ft | 549 kts | 102° |
| 2026-05-06 09:19 | 24.42342 | 40.95645 | 36992 ft | 548 kts | 102° |
| 2026-05-06 09:20 | 24.41498 | 41.03906 | 37000 ft | 548 kts | 102° |
| 2026-05-06 09:20 | 24.40637 | 41.12214 | 37005 ft | 548 kts | 103° |
| 2026-05-06 09:21 | 24.39762 | 41.20507 | 37003 ft | 547 kts | 103° |
| 2026-05-06 09:21 | 24.38882 | 41.28791 | 37008 ft | 546 kts | 103° |
| 2026-05-06 09:22 | 24.38001 | 41.37068 | 36992 ft | 546 kts | 103° |
| 2026-05-06 09:22 | 24.37119 | 41.45331 | 37013 ft | 545 kts | 103° |
| 2026-05-06 09:23 | 24.36238 | 41.53529 | 37015 ft | 545 kts | 103° |
| 2026-05-06 09:23 | 24.35348 | 41.61769 | 37010 ft | 544 kts | 103° |
| 2026-05-06 09:24 | 24.34455 | 41.69998 | 37016 ft | 543 kts | 103° |
| 2026-05-06 09:24 | 24.33559 | 41.78214 | 37003 ft | 543 kts | 103° |
| 2026-05-06 09:25 | 24.32207 | 41.86286 | 37014 ft | 533 kts | 113° |
| 2026-05-06 09:25 | 24.30122 | 41.94066 | 37022 ft | 532 kts | 114° |
| 2026-05-06 09:26 | 24.28023 | 42.01751 | 37009 ft | 533 kts | 114° |
| 2026-05-06 09:26 | 24.25935 | 42.09560 | 37019 ft | 534 kts | 113° |
| 2026-05-06 09:27 | 24.23868 | 42.17388 | 37018 ft | 535 kts | 113° |
| 2026-05-06 09:27 | 24.21794 | 42.25234 | 37013 ft | 536 kts | 113° |
| 2026-05-06 09:28 | 24.19697 | 42.33133 | 37023 ft | 537 kts | 113° |
| 2026-05-06 09:28 | 24.17606 | 42.40985 | 37006 ft | 537 kts | 113° |
| 2026-05-06 09:29 | 24.15510 | 42.48836 | 37015 ft | 537 kts | 113° |
| 2026-05-06 09:29 | 24.13412 | 42.56679 | 37023 ft | 536 kts | 113° |
| 2026-05-06 09:30 | 24.11327 | 42.64457 | 37010 ft | 536 kts | 112° |
| 2026-05-06 09:30 | 24.09215 | 42.72319 | 37023 ft | 534 kts | 112° |
| 2026-05-06 09:31 | 24.07133 | 42.80052 | 37023 ft | 533 kts | 113° |
| 2026-05-06 09:31 | 24.05036 | 42.87827 | 37024 ft | 532 kts | 113° |
| 2026-05-06 09:32 | 24.02939 | 42.95583 | 37027 ft | 531 kts | 113° |
| 2026-05-06 09:32 | 24.00872 | 43.03225 | 37016 ft | 531 kts | 112° |
| 2026-05-06 09:33 | 23.98775 | 43.10961 | 37031 ft | 530 kts | 112° |
| 2026-05-06 09:33 | 23.96679 | 43.18681 | 37036 ft | 529 kts | 112° |
| 2026-05-06 09:34 | 23.94579 | 43.26395 | 37030 ft | 529 kts | 112° |
| 2026-05-06 09:34 | 23.92475 | 43.34105 | 37045 ft | 529 kts | 112° |
| 2026-05-06 09:35 | 23.90367 | 43.41817 | 37040 ft | 530 kts | 112° |
| 2026-05-06 09:35 | 23.88253 | 43.49531 | 37027 ft | 530 kts | 112° |
| 2026-05-06 09:36 | 23.86135 | 43.57247 | 37024 ft | 530 kts | 112° |
| 2026-05-06 09:36 | 23.84013 | 43.64960 | 37010 ft | 530 kts | 112° |
| 2026-05-06 09:37 | 23.81872 | 43.72726 | 37009 ft | 530 kts | 112° |
| 2026-05-06 09:37 | 23.79743 | 43.80437 | 37002 ft | 530 kts | 112° |
| 2026-05-06 09:38 | 23.77734 | 43.88138 | 36987 ft | 534 kts | 107° |
| 2026-05-06 09:38 | 23.76722 | 43.96209 | 36985 ft | 539 kts | 98° |
| 2026-05-06 09:39 | 23.76196 | 44.04274 | 36960 ft | 540 kts | 98° |
| 2026-05-06 09:39 | 23.75642 | 44.12497 | 36962 ft | 539 kts | 98° |
| 2026-05-06 09:40 | 23.75040 | 44.20649 | 36978 ft | 539 kts | 99° |
| 2026-05-06 09:40 | 23.74101 | 44.32875 | 36971 ft | 539 kts | 99° |
| 2026-05-06 09:41 | 23.73475 | 44.41022 | 36966 ft | 539 kts | 99° |
| 2026-05-06 09:41 | 23.72847 | 44.49163 | 36973 ft | 538 kts | 99° |
| 2026-05-06 09:42 | 23.72216 | 44.57293 | 36975 ft | 537 kts | 99° |
| 2026-05-06 09:42 | 23.71581 | 44.65412 | 36958 ft | 536 kts | 99° |
| 2026-05-06 09:43 | 23.70944 | 44.73508 | 36962 ft | 535 kts | 99° |
| 2026-05-06 09:43 | 23.70303 | 44.81588 | 36970 ft | 534 kts | 99° |
| 2026-05-06 09:44 | 23.69659 | 44.89658 | 36962 ft | 533 kts | 99° |
| 2026-05-06 09:44 | 23.69009 | 44.97714 | 36970 ft | 533 kts | 99° |
| 2026-05-06 09:45 | 23.68362 | 45.05676 | 36959 ft | 534 kts | 99° |
| 2026-05-06 09:45 | 23.67709 | 45.13680 | 36946 ft | 533 kts | 99° |
| 2026-05-06 09:46 | 23.67049 | 45.21723 | 36945 ft | 532 kts | 99° |
| 2026-05-06 09:46 | 23.66383 | 45.29800 | 36935 ft | 531 kts | 99° |
| 2026-05-06 09:47 | 23.65720 | 45.37811 | 36934 ft | 530 kts | 99° |
| 2026-05-06 09:47 | 23.65054 | 45.45812 | 36942 ft | 529 kts | 99° |
| 2026-05-06 09:48 | 23.64388 | 45.53749 | 36918 ft | 529 kts | 99° |
| 2026-05-06 09:48 | 23.63716 | 45.61728 | 36921 ft | 528 kts | 99° |
| 2026-05-06 09:49 | 23.63042 | 45.69686 | 36907 ft | 527 kts | 99° |
| 2026-05-06 09:49 | 23.62360 | 45.77684 | 36920 ft | 526 kts | 99° |
| 2026-05-06 09:50 | 23.61681 | 45.85613 | 36916 ft | 525 kts | 99° |
| 2026-05-06 09:50 | 23.60999 | 45.93528 | 36916 ft | 524 kts | 99° |
| 2026-05-06 09:51 | 23.60323 | 46.01330 | 36925 ft | 523 kts | 99° |
| 2026-05-06 09:51 | 23.59639 | 46.09178 | 36927 ft | 523 kts | 99° |
| 2026-05-06 09:52 | 23.58946 | 46.17073 | 36928 ft | 523 kts | 99° |
| 2026-05-06 09:52 | 23.58250 | 46.24971 | 36916 ft | 524 kts | 99° |
| 2026-05-06 09:53 | 23.57661 | 46.31603 | 36917 ft | 525 kts | 99° |
| 2026-05-06 09:53 | 23.56956 | 46.39521 | 36932 ft | 525 kts | 99° |
| 2026-05-06 09:54 | 23.56245 | 46.47457 | 36925 ft | 527 kts | 99° |
| 2026-05-06 09:54 | 23.55526 | 46.55409 | 36933 ft | 528 kts | 99° |
| 2026-05-06 09:55 | 23.54793 | 46.63377 | 36908 ft | 529 kts | 99° |
| 2026-05-06 09:55 | 23.54053 | 46.71368 | 36920 ft | 530 kts | 99° |
| 2026-05-06 09:56 | 23.53308 | 46.79367 | 36895 ft | 531 kts | 99° |
| 2026-05-06 09:56 | 23.52559 | 46.87382 | 36884 ft | 532 kts | 99° |
| 2026-05-06 09:57 | 23.51806 | 46.95404 | 36895 ft | 532 kts | 99° |
| 2026-05-06 09:57 | 23.51059 | 47.03317 | 36881 ft | 532 kts | 99° |
| 2026-05-06 09:58 | 23.50297 | 47.11333 | 36873 ft | 532 kts | 99° |
| 2026-05-06 09:58 | 23.49533 | 47.19340 | 36861 ft | 531 kts | 99° |
| 2026-05-06 09:59 | 23.48766 | 47.27326 | 36855 ft | 529 kts | 99° |
| 2026-05-06 09:59 | 23.47998 | 47.35284 | 36856 ft | 528 kts | 99° |
| 2026-05-06 10:00 | 23.47227 | 47.43221 | 36854 ft | 527 kts | 99° |
| 2026-05-06 10:00 | 23.46454 | 47.51146 | 36853 ft | 526 kts | 99° |
| 2026-05-06 10:01 | 23.45682 | 47.59062 | 36842 ft | 525 kts | 99° |
| 2026-05-06 10:01 | 23.44911 | 47.66969 | 36838 ft | 525 kts | 99° |
| 2026-05-06 10:02 | 23.44136 | 47.74877 | 36834 ft | 525 kts | 99° |
| 2026-05-06 10:02 | 23.43363 | 47.82725 | 36823 ft | 525 kts | 99° |
| 2026-05-06 10:03 | 23.42580 | 47.90621 | 36818 ft | 524 kts | 99° |
| 2026-05-06 10:03 | 23.41794 | 47.98517 | 36815 ft | 524 kts | 99° |
| 2026-05-06 10:04 | 23.41014 | 48.06306 | 36812 ft | 525 kts | 99° |
| 2026-05-06 10:04 | 23.40219 | 48.14205 | 36810 ft | 525 kts | 99° |
| 2026-05-06 10:05 | 23.39420 | 48.22107 | 36802 ft | 525 kts | 99° |
| 2026-05-06 10:05 | 23.38618 | 48.30005 | 36799 ft | 525 kts | 99° |
| 2026-05-06 10:06 | 23.37978 | 48.37912 | 36799 ft | 525 kts | 96° |
| 2026-05-06 10:06 | 23.37678 | 48.45847 | 36796 ft | 524 kts | 95° |
| 2026-05-06 10:07 | 23.37407 | 48.53772 | 36797 ft | 524 kts | 95° |
| 2026-05-06 10:07 | 23.37101 | 48.61682 | 36793 ft | 523 kts | 95° |
| 2026-05-06 10:08 | 23.36774 | 48.69581 | 36794 ft | 522 kts | 95° |
| 2026-05-06 10:08 | 23.36442 | 48.77472 | 36793 ft | 522 kts | 95° |
| 2026-05-06 10:09 | 23.36109 | 48.85361 | 36796 ft | 522 kts | 95° |
| 2026-05-06 10:09 | 23.35773 | 48.93245 | 36789 ft | 521 kts | 95° |
| 2026-05-06 10:10 | 23.35439 | 49.01010 | 36786 ft | 521 kts | 95° |
| 2026-05-06 10:10 | 23.35096 | 49.08880 | 36781 ft | 521 kts | 95° |
| 2026-05-06 10:11 | 23.34746 | 49.16741 | 36784 ft | 520 kts | 95° |
| 2026-05-06 10:11 | 23.34392 | 49.24598 | 36787 ft | 520 kts | 95° |
| 2026-05-06 10:12 | 23.34034 | 49.32457 | 36780 ft | 520 kts | 95° |
| 2026-05-06 10:12 | 23.33674 | 49.40312 | 36780 ft | 520 kts | 95° |
| 2026-05-06 10:13 | 23.33309 | 49.48162 | 36778 ft | 520 kts | 95° |
| 2026-05-06 10:13 | 23.32941 | 49.56012 | 36772 ft | 519 kts | 95° |
| 2026-05-06 10:14 | 23.32569 | 49.63857 | 36777 ft | 519 kts | 95° |
| 2026-05-06 10:14 | 23.32193 | 49.71694 | 36784 ft | 519 kts | 95° |
| 2026-05-06 10:15 | 23.31813 | 49.79530 | 36790 ft | 519 kts | 95° |
| 2026-05-06 10:15 | 23.31430 | 49.87367 | 36787 ft | 519 kts | 95° |
| 2026-05-06 10:16 | 23.31042 | 49.95204 | 36789 ft | 519 kts | 95° |
| 2026-05-06 10:16 | 23.30656 | 50.02943 | 36779 ft | 519 kts | 95° |
| 2026-05-06 10:17 | 23.30261 | 50.10785 | 36787 ft | 520 kts | 95° |
| 2026-05-06 10:17 | 23.29861 | 50.18641 | 36783 ft | 520 kts | 95° |
| 2026-05-06 10:18 | 23.29459 | 50.26444 | 36770 ft | 520 kts | 95° |
| 2026-05-06 10:18 | 23.29051 | 50.34302 | 36787 ft | 520 kts | 95° |
| 2026-05-06 10:19 | 23.28640 | 50.42154 | 36783 ft | 520 kts | 95° |
| 2026-05-06 10:19 | 23.28224 | 50.50009 | 36780 ft | 520 kts | 95° |
| 2026-05-06 10:20 | 23.27805 | 50.57859 | 36766 ft | 520 kts | 95° |
| 2026-05-06 10:20 | 23.27591 | 50.61821 | 36082 ft | 530 kts | 95° |
| 2026-05-06 10:20 | 23.27374 | 50.65819 | 35383 ft | 529 kts | 95° |
| 2026-05-06 10:21 | 23.27157 | 50.69811 | 34699 ft | 527 kts | 95° |
| 2026-05-06 10:21 | 23.26943 | 50.73769 | 34174 ft | 522 kts | 95° |
| 2026-05-06 10:21 | 23.26729 | 50.77689 | 33621 ft | 518 kts | 95° |
| 2026-05-06 10:21 | 23.26515 | 50.81579 | 33049 ft | 513 kts | 95° |
| 2026-05-06 10:22 | 23.26302 | 50.85431 | 32502 ft | 508 kts | 95° |
| 2026-05-06 10:22 | 23.26090 | 50.89247 | 31978 ft | 503 kts | 95° |
| 2026-05-06 10:22 | 23.25879 | 50.93025 | 31473 ft | 498 kts | 95° |
| 2026-05-06 10:22 | 23.25670 | 50.96770 | 30972 ft | 494 kts | 95° |
| 2026-05-06 10:23 | 23.25467 | 51.00379 | 30504 ft | 489 kts | 95° |
| 2026-05-06 10:23 | 23.25338 | 51.04043 | 30006 ft | 483 kts | 88° |
| 2026-05-06 10:23 | 23.25989 | 51.07605 | 29463 ft | 481 kts | 69° |
| 2026-05-06 10:23 | 23.27576 | 51.10774 | 28937 ft | 476 kts | 52° |
| 2026-05-06 10:24 | 23.29848 | 51.13327 | 28546 ft | 466 kts | 36° |
| 2026-05-06 10:24 | 23.32545 | 51.15189 | 28254 ft | 454 kts | 24° |
| 2026-05-06 10:24 | 23.35464 | 51.16427 | 27939 ft | 450 kts | 12° |
| 2026-05-06 10:24 | 23.38545 | 51.17041 | 27489 ft | 451 kts | 3° |
| 2026-05-06 10:25 | 23.41663 | 51.17290 | 27169 ft | 447 kts | 360° |
| 2026-05-06 10:25 | 23.44760 | 51.17403 | 26868 ft | 443 kts | 359° |
| 2026-05-06 10:25 | 23.47835 | 51.17497 | 26581 ft | 440 kts | 359° |
| 2026-05-06 10:25 | 23.50886 | 51.17619 | 26301 ft | 437 kts | 360° |
| 2026-05-06 10:26 | 23.53916 | 51.17778 | 26006 ft | 435 kts | 0° |
| 2026-05-06 10:26 | 23.56925 | 51.17966 | 25740 ft | 432 kts | 1° |
| 2026-05-06 10:26 | 23.59916 | 51.18174 | 25491 ft | 430 kts | 1° |
| 2026-05-06 10:26 | 23.62892 | 51.18390 | 25203 ft | 427 kts | 1° |
| 2026-05-06 10:27 | 23.65852 | 51.18610 | 24925 ft | 425 kts | 1° |
| 2026-05-06 10:27 | 23.68796 | 51.18829 | 24658 ft | 423 kts | 1° |
| 2026-05-06 10:27 | 23.71726 | 51.19046 | 24368 ft | 422 kts | 1° |
| 2026-05-06 10:27 | 23.74648 | 51.19262 | 24106 ft | 420 kts | 1° |
| 2026-05-06 10:28 | 23.77555 | 51.19476 | 23839 ft | 418 kts | 1° |
| 2026-05-06 10:28 | 23.80450 | 51.19689 | 23578 ft | 416 kts | 2° |
| 2026-05-06 10:28 | 23.83334 | 51.19902 | 23296 ft | 414 kts | 1° |
| 2026-05-06 10:28 | 23.86203 | 51.20113 | 22992 ft | 412 kts | 1° |
| 2026-05-06 10:29 | 23.89053 | 51.20323 | 22714 ft | 409 kts | 1° |
| 2026-05-06 10:29 | 23.91883 | 51.20531 | 22441 ft | 406 kts | 2° |
| 2026-05-06 10:29 | 23.94695 | 51.20739 | 22180 ft | 403 kts | 2° |
| 2026-05-06 10:29 | 23.97486 | 51.20945 | 21922 ft | 401 kts | 2° |
| 2026-05-06 10:30 | 24.00260 | 51.21149 | 21669 ft | 398 kts | 2° |
| 2026-05-06 10:30 | 24.03018 | 51.21353 | 21414 ft | 396 kts | 2° |
| 2026-05-06 10:30 | 24.05763 | 51.21555 | 21164 ft | 394 kts | 2° |
| 2026-05-06 10:30 | 24.08492 | 51.21757 | 20830 ft | 392 kts | 2° |
| 2026-05-06 10:31 | 24.11216 | 51.21958 | 20207 ft | 390 kts | 2° |
| 2026-05-06 10:31 | 24.13905 | 51.22157 | 19334 ft | 386 kts | 2° |
| 2026-05-06 10:31 | 24.16583 | 51.22354 | 18411 ft | 385 kts | 2° |
| 2026-05-06 10:31 | 24.19246 | 51.22552 | 17453 ft | 382 kts | 2° |
| 2026-05-06 10:32 | 24.21896 | 51.22747 | 16420 ft | 380 kts | 2° |
| 2026-05-06 10:32 | 24.24548 | 51.22943 | 15520 ft | 385 kts | 3° |
| 2026-05-06 10:32 | 24.27214 | 51.23141 | 15106 ft | 382 kts | 3° |
| 2026-05-06 10:32 | 24.29831 | 51.23336 | 14973 ft | 370 kts | 4° |
| 2026-05-06 10:33 | 24.32320 | 51.23854 | 14775 ft | 362 kts | 18° |
| 2026-05-06 10:33 | 24.34575 | 51.25028 | 14606 ft | 357 kts | 30° |
| 2026-05-06 10:33 | 24.36523 | 51.26680 | 14352 ft | 354 kts | 41° |
| 2026-05-06 10:33 | 24.38307 | 51.28550 | 14062 ft | 356 kts | 43° |
| 2026-05-06 10:34 | 24.40093 | 51.30445 | 13757 ft | 357 kts | 42° |
| 2026-05-06 10:34 | 24.41882 | 51.32335 | 13429 ft | 357 kts | 42° |
| 2026-05-06 10:34 | 24.43674 | 51.34214 | 13072 ft | 355 kts | 42° |
| 2026-05-06 10:34 | 24.45451 | 51.36067 | 12768 ft | 349 kts | 41° |
| 2026-05-06 10:35 | 24.47198 | 51.37883 | 12450 ft | 342 kts | 42° |
| 2026-05-06 10:35 | 24.48917 | 51.39665 | 12154 ft | 338 kts | 41° |
| 2026-05-06 10:35 | 24.50068 | 51.40859 | 11946 ft | 336 kts | 41° |
| 2026-05-06 10:35 | 24.51761 | 51.42611 | 11649 ft | 332 kts | 40° |
| 2026-05-06 10:36 | 24.53576 | 51.44151 | 11361 ft | 330 kts | 31° |
| 2026-05-06 10:36 | 24.55557 | 51.45307 | 11109 ft | 321 kts | 25° |
| 2026-05-06 10:36 | 24.57518 | 51.46341 | 10791 ft | 303 kts | 24° |
| 2026-05-06 10:36 | 24.59367 | 51.47310 | 10518 ft | 288 kts | 25° |
| 2026-05-06 10:37 | 24.61156 | 51.48255 | 10266 ft | 282 kts | 25° |
| 2026-05-06 10:37 | 24.62900 | 51.49185 | 10013 ft | 275 kts | 25° |
| 2026-05-06 10:37 | 24.64646 | 51.50122 | 9589 ft | 276 kts | 25° |
| 2026-05-06 10:37 | 24.66347 | 51.51038 | 9193 ft | 275 kts | 25° |
| 2026-05-06 10:38 | 24.68051 | 51.51956 | 8863 ft | 271 kts | 26° |
| 2026-05-06 10:38 | 24.69750 | 51.52836 | 8497 ft | 269 kts | 24° |
| 2026-05-06 10:38 | 24.71462 | 51.53665 | 8073 ft | 269 kts | 24° |
| 2026-05-06 10:38 | 24.73203 | 51.54500 | 7697 ft | 267 kts | 24° |
| 2026-05-06 10:39 | 24.74873 | 51.55303 | 7394 ft | 263 kts | 24° |
| 2026-05-06 10:39 | 24.76545 | 51.56111 | 7001 ft | 263 kts | 24° |
| 2026-05-06 10:39 | 24.78224 | 51.56925 | 6602 ft | 264 kts | 24° |
| 2026-05-06 10:39 | 24.79878 | 51.57728 | 6391 ft | 255 kts | 24° |
| 2026-05-06 10:40 | 24.81472 | 51.58502 | 6194 ft | 246 kts | 24° |
| 2026-05-06 10:40 | 24.83014 | 51.59252 | 5938 ft | 239 kts | 24° |
| 2026-05-06 10:40 | 24.84525 | 51.59988 | 5601 ft | 237 kts | 25° |
| 2026-05-06 10:40 | 24.85994 | 51.60780 | 5315 ft | 233 kts | 28° |
| 2026-05-06 10:41 | 24.87426 | 51.61617 | 5080 ft | 233 kts | 28° |
| 2026-05-06 10:41 | 24.88840 | 51.62450 | 4924 ft | 234 kts | 28° |
| 2026-05-06 10:41 | 24.90286 | 51.63299 | 4725 ft | 236 kts | 28° |
| 2026-05-06 10:41 | 24.91735 | 51.64148 | 4551 ft | 236 kts | 28° |
| 2026-05-06 10:42 | 24.93181 | 51.64993 | 4346 ft | 233 kts | 28° |
| 2026-05-06 10:42 | 24.94587 | 51.65814 | 4157 ft | 224 kts | 28° |
| 2026-05-06 10:42 | 24.95923 | 51.66592 | 4045 ft | 212 kts | 28° |
| 2026-05-06 10:42 | 24.97231 | 51.67355 | 3962 ft | 214 kts | 28° |
| 2026-05-06 10:43 | 24.98551 | 51.68124 | 3861 ft | 215 kts | 28° |
| 2026-05-06 10:43 | 24.99852 | 51.68882 | 3803 ft | 206 kts | 28° |
| 2026-05-06 10:43 | 25.01079 | 51.69596 | 3762 ft | 195 kts | 28° |
| 2026-05-06 10:44 | 25.03625 | 51.69852 | 3650 ft | 192 kts | 347° |
| 2026-05-06 10:44 | 25.04920 | 51.69477 | 3590 ft | 193 kts | 346° |
| 2026-05-06 10:44 | 25.06194 | 51.69025 | 3563 ft | 192 kts | 343° |
| 2026-05-06 10:44 | 25.07448 | 51.68511 | 3510 ft | 192 kts | 341° |
| 2026-05-06 10:45 | 25.08703 | 51.67970 | 3329 ft | 196 kts | 340° |
| 2026-05-06 10:45 | 25.09983 | 51.67408 | 3085 ft | 194 kts | 340° |
| 2026-05-06 10:45 | 25.11221 | 51.66859 | 2856 ft | 187 kts | 339° |
| 2026-05-06 10:45 | 25.12380 | 51.66348 | 2634 ft | 173 kts | 340° |
| 2026-05-06 10:46 | 25.13466 | 51.65869 | 2425 ft | 168 kts | 339° |
| 2026-05-06 10:46 | 25.14570 | 51.65380 | 2234 ft | 172 kts | 341° |
| 2026-05-06 10:46 | 25.15666 | 51.64899 | 2000 ft | 166 kts | 341° |
| 2026-05-06 10:46 | 25.16731 | 51.64430 | 1776 ft | 165 kts | 341° |
| 2026-05-06 10:47 | 25.17803 | 51.63956 | 1607 ft | 165 kts | 341° |
| 2026-05-06 10:47 | 25.18862 | 51.63488 | 1390 ft | 162 kts | 341° |
| 2026-05-06 10:47 | 25.19904 | 51.63028 | 1170 ft | 161 kts | 340° |
| 2026-05-06 10:47 | 25.20911 | 51.62583 | 954 ft | 150 kts | 340° |
| 2026-05-06 10:48 | 25.21866 | 51.62162 | 793 ft | 147 kts | 340° |
| 2026-05-06 10:48 | 25.22811 | 51.61738 | 637 ft | 147 kts | 341° |
| 2026-05-06 10:48 | 25.23757 | 51.61334 | 430 ft | 145 kts | 340° |
| 2026-05-06 10:48 | 25.24696 | 51.60918 | 241 ft | 145 kts | 340° |
| 2026-05-06 10:49 | 25.25624 | 51.60503 | 45 ft | 143 kts | 341° |
| 2026-05-06 10:49 | 25.26473 | 51.60132 | 31 ft | 113 kts | 339° |
| 2026-05-06 10:49 | 25.27025 | 51.59887 | 30 ft | 59 kts | 339° |
| 2026-05-06 10:49 | 25.27342 | 51.59824 | 31 ft | 35 kts | 5° |
| 2026-05-06 10:50 | 25.27427 | 51.59848 | 32 ft | 8 kts | 37° |
| 2026-05-06 10:50 | 25.27432 | 51.59908 | 33 ft | 9 kts | 125° |
| 2026-05-06 10:50 | 25.27376 | 51.59937 | 33 ft | 9 kts | 160° |
| 2026-05-06 10:50 | 25.27313 | 51.59963 | 33 ft | 10 kts | 158° |
| 2026-05-06 10:51 | 25.27249 | 51.59992 | 33 ft | 10 kts | 158° |
| 2026-05-06 10:51 | 25.27194 | 51.60016 | 33 ft | 8 kts | 158° |
| 2026-05-06 10:51 | 25.27138 | 51.60041 | 33 ft | 9 kts | 158° |
| 2026-05-06 10:51 | 25.27074 | 51.60069 | 33 ft | 10 kts | 158° |
| 2026-05-06 10:52 | 25.27004 | 51.60100 | 33 ft | 11 kts | 158° |
| 2026-05-06 10:52 | 25.26931 | 51.60132 | 33 ft | 12 kts | 158° |
| 2026-05-06 10:52 | 25.26856 | 51.60165 | 32 ft | 12 kts | 158° |
| 2026-05-06 10:52 | 25.26781 | 51.60199 | 32 ft | 12 kts | 158° |
| 2026-05-06 10:53 | 25.26703 | 51.60233 | 32 ft | 12 kts | 159° |
| 2026-05-06 10:53 | 25.26625 | 51.60267 | 33 ft | 12 kts | 158° |
| 2026-05-06 10:53 | 25.26547 | 51.60301 | 33 ft | 11 kts | 158° |
| 2026-05-06 10:53 | 25.26498 | 51.60332 | 33 ft | 7 kts | 124° |
| 2026-05-06 10:54 | 25.26508 | 51.60385 | 32 ft | 7 kts | 63° |
| 2026-05-06 10:54 | 25.26529 | 51.60437 | 34 ft | 7 kts | 67° |
| 2026-05-06 10:54 | 25.26548 | 51.60490 | 34 ft | 7 kts | 68° |
| 2026-05-06 10:54 | 25.26568 | 51.60543 | 34 ft | 7 kts | 68° |
| 2026-05-06 10:55 | 25.26587 | 51.60596 | 34 ft | 7 kts | 72° |
| 2026-05-06 10:55 | 25.26583 | 51.60653 | 34 ft | 7 kts | 108° |
| 2026-05-06 10:55 | 25.26564 | 51.60706 | 35 ft | 7 kts | 112° |
| 2026-05-06 10:55 | 25.26544 | 51.60758 | 35 ft | 7 kts | 112° |
| 2026-05-06 10:56 | 25.26527 | 51.60812 | 35 ft | 7 kts | 96° |
| 2026-05-06 10:56 | 25.26560 | 51.60851 | 35 ft | 8 kts | 21° |
| 2026-05-06 10:56 | 25.26609 | 51.60872 | 35 ft | 8 kts | 22° |
| 2026-05-06 10:56 | 25.26629 | 51.60882 | 35 ft | 2 kts | 22° |
| 2026-05-06 10:57 | 25.26645 | 51.60889 | 35 ft | 2 kts | 23° |
| 2026-05-06 10:57 | 25.26661 | 51.60897 | 35 ft | 2 kts | 23° |
| 2026-05-06 10:57 | 25.26673 | 51.60903 | 35 ft | 2 kts | 23° |
| 2026-05-06 10:57 | 25.26682 | 51.60906 | 35 ft | 1 kts | 23° |
| 2026-05-06 10:58 | 25.26684 | 51.60907 | 35 ft | 0 kts | 23° |